Flight Track Log - Related Links

Times and Time Zones

All times are in EDT time to prevent confusion due to time zone crossing. See the DAL975 flight status page for this flight to view local times or setup timezone preferences in your user account.

Time Position Orientation Groundspeed Altitude Reporting Facility
EDT Latitude Longitude Course Direction KTS MPH feet Rate Location/Type
Sun 07:18:58 PM 40.7667 -73.8500 270° West 147 169 900  Level New York TRACON
Sun 07:19:58 PM 40.7667 -73.7833 90° East 201 231 3,500 2,050 Climbing New York TRACON
Sun 07:20:58 PM 40.8167 -73.7500 27° Northeast 226 260 5,000 1,200 Climbing New York TRACON
Sun 07:21:00 PM 40.7834 -74.2666 270° West  Level FlightAware Approximate
Sun 07:21:58 PM 40.8500 -73.8333 298° West 237 273 5,900  Level New York TRACON
Sun 07:22:00 PM 40.7834 -74.4021 270° West  Level FlightAware Approximate
Sun 07:22:58 PM 40.8667 -73.9333 282° West 281 323 9,000  Level New York TRACON
Sun 07:23:00 PM 40.7834 -74.5377 270° West  Level FlightAware Approximate
Sun 07:23:58 PM 40.8667 -74.0333 270° West 293 337 12,200  Level New York TRACON
Sun 07:24:00 PM 40.7833 -74.6732 270° West  Level FlightAware Approximate
Sun 07:24:58 PM 40.8500 -74.1500 259° West 356 410 14,500  Level New York TRACON
Sun 07:25:58 PM 40.8500 -74.2833 270° West 360 414 15,100 1,250 Climbing New York TRACON
Sun 07:26:58 PM 40.8500 -74.4167 270° West 362 417 17,000 545 Climbing New York TRACON
Sun 07:29:27 PM 40.8261 -74.7447 265° West 364 419 17,000 201 Level New York Center
Sun 07:30:27 PM 40.8200 -74.8622 266° West 364 419 17,700 1,587 Climbing New York Center
Sun 07:31:28 PM 40.8103 -75.0153 265° West 369 425 20,200 2,656 Climbing New York Center
Sun 07:32:29 PM 40.8011 -75.1517 265° West 369 425 23,100 2,622 Climbing New York Center
Sun 07:33:27 PM 40.7792 -75.2928 258° West 376 433 25,400 2,067 Climbing New York Center
Sun 07:34:28 PM 40.7511 -75.4250 254° West 387 445 27,200 1,279 Climbing New York Center
Sun 07:35:29 PM 40.7022 -75.5558 244° Southwest 387 445 28,000 403 Climbing New York Center
Sun 07:36:27 PM 40.6553 -75.6839 244° Southwest 398 458 28,000  Level New York Center
Sun 07:37:27 PM 40.6039 -75.8169 243° Southwest 403 464 28,000  Level New York Center
Sun 07:38:28 PM 40.5522 -75.9497 243° Southwest 403 464 28,000  Level New York Center
Sun 07:39:30 PM 40.5006 -76.0769 242° Southwest 403 464 28,000  Level New York Center
Sun 07:40:28 PM 40.4508 -76.2094 244° Southwest 403 464 28,000  Level New York Center
Sun 07:41:28 PM 40.4011 -76.3392 243° Southwest 403 464 28,000  Level New York Center
Sun 07:42:29 PM 40.3533 -76.4661 244° Southwest 398 458 28,000  Level New York Center
Sun 07:43:29 PM 40.3033 -76.5928 243° Southwest 398 458 28,000  Level New York Center
Sun 07:44:27 PM 40.2492 -76.7186 241° Southwest 398 458 28,000  Level New York Center
Sun 07:45:28 PM 40.1989 -76.8475 243° Southwest 398 458 28,000  Level New York Center
Sun 07:46:27 PM 40.1483 -76.9761 243° Southwest 398 458 28,000  Level New York Center
Sun 07:47:29 PM 40.1006 -77.0886 241° Southwest 392 451 28,000 -295 Level New York Center
Sun 07:48:29 PM 40.0522 -77.2119 243° Southwest 392 451 27,400 -887 Descending New York Center
Sun 07:50:52 PM 39.9572 -77.5278 249° West 393 452 25,000 -1,005 Descending Cleveland Center
Sun 07:51:52 PM 39.9633 -77.6711 273° West 393 452 24,000 -1,000 Descending Cleveland Center
Sun 07:52:52 PM 39.9667 -77.8119 272° West 398 458 23,000 -950 Descending Cleveland Center
Sun 07:53:52 PM 39.9722 -77.9553 273° West 398 458 22,100 -500 Descending Cleveland Center
Sun 07:54:52 PM 39.9775 -78.0933 273° West 398 458 22,000 -50 Descending Cleveland Center
Sun 07:55:52 PM 39.9950 -78.2336 279° West 398 458 22,000  Level Cleveland Center
Sun 07:56:52 PM 40.0169 -78.3928 280° West 405 466 22,000  Level Cleveland Center
Sun 07:57:52 PM 40.0361 -78.5331 280° West 405 466 22,000  Level Cleveland Center
Sun 07:58:52 PM 40.0553 -78.6708 280° West 405 466 22,000 -400 Level Cleveland Center
Sun 07:59:52 PM 40.0742 -78.8114 280° West 405 466 21,200 -900 Descending Cleveland Center
Sun 08:00:52 PM 40.0931 -78.9519 280° West 405 466 20,200 -1,000 Descending Cleveland Center
Sun 08:01:52 PM 40.1117 -79.0928 280° West 405 466 19,200 -1,000 Descending Cleveland Center
Sun 08:02:52 PM 40.1300 -79.2308 280° West 405 466 18,200 -1,150 Descending Cleveland Center
Sun 08:03:52 PM 40.1503 -79.3553 282° West 396 456 16,900 -1,950 Descending Cleveland Center
Sun 08:04:52 PM 40.1683 -79.4856 280° West 384 442 14,300 -2,550 Descending Cleveland Center
Sun 08:05:52 PM 40.1986 -79.6100 288° West 371 427 11,800 -2,150 Descending Cleveland Center
Sun 08:06:52 PM 40.2328 -79.7264 291° West 358 412 10,000 -824 Descending Cleveland Center
Sun 08:08:03 PM 40.2739 -79.8753 290° West 336 387 10,000  Level FAA TRACON SMA TRACON (SMA)
Sun 08:08:23 PM 40.2853 -79.9097 293° West 335 386 10,000 150 Level FAA TRACON SMA TRACON (SMA)
Sun 08:08:43 PM 40.2961 -79.9428 293° West 326 375 10,100 -600 Climbing FAA TRACON SMA TRACON (SMA)
Sun 08:09:03 PM 40.3078 -79.9778 294° West 277 319 9,600 -2,100 Descending FAA TRACON SMA TRACON (SMA)
Sun 08:09:23 PM 40.3167 -80.0058 293° West 275 316 8,700 -2,550 Descending FAA TRACON SMA TRACON (SMA)
Sun 08:09:43 PM 40.3267 -80.0342 295° West 277 319 7,900 -2,400 Descending FAA TRACON SMA TRACON (SMA)
Sun 08:10:03 PM 40.3397 -80.0689 296° West 275 316 7,100 -1,950 Descending FAA TRACON SMA TRACON (SMA)
Sun 08:10:23 PM 40.3528 -80.0925 306° West 275 316 6,600 -1,500 Descending FAA TRACON SMA TRACON (SMA)
Sun 08:10:43 PM 40.3600 -80.1247 286° West 275 316 6,100 -900 Descending FAA TRACON SMA TRACON (SMA)
Sun 08:11:03 PM 40.3719 -80.1603 294° West 277 319 6,000 -150 Descending FAA TRACON SMA TRACON (SMA)
Sun 08:11:23 PM 40.3819 -80.1889 295° West 278 320 6,000  Level FAA TRACON SMA TRACON (SMA)
Sun 08:11:43 PM 40.3919 -80.2175 295° West 278 320 6,000 -150 Level FAA TRACON SMA TRACON (SMA)
Sun 08:12:03 PM 40.3969 -80.2511 281° West 257 296 5,900 -750 Descending FAA TRACON SMA TRACON (SMA)
Sun 08:12:23 PM 40.3986 -80.2819 274° West 234 269 5,500 -1,200 Descending FAA TRACON SMA TRACON (SMA)
Sun 08:12:43 PM 40.4003 -80.3083 275° West 229 264 5,100 -1,024 Descending FAA TRACON SMA TRACON (SMA)
Sun 08:13:04 PM 40.4017 -80.3364 274° West 221 254 4,800 -1,200 Descending FAA TRACON SMA TRACON (SMA)
Sun 08:13:23 PM 40.4028 -80.3628 273° West 206 237 4,300 -2,000 Descending FAA TRACON SMA TRACON (SMA)
Sun 08:13:43 PM 40.4117 -80.3819 301° West 217 250 3,500 -1,800 Descending FAA TRACON SMA TRACON (SMA)
Sun 08:14:03 PM 40.4278 -80.3878 345° North 201 231 3,100 -750 Descending FAA TRACON SMA TRACON (SMA)
Sun 08:14:23 PM 40.4475 -80.3867 North 185 213 3,000 -150 Descending FAA TRACON SMA TRACON (SMA)
Sun 08:14:43 PM 40.4633 -80.3856 North 179 206 3,000  Level FAA TRACON SMA TRACON (SMA)

Login

Don't have an account? Register now (free) for customized features, flight alerts, and more!